createdAt,value
2019-05-19T00:01:24.739Z,53.29
2019-05-19T00:03:52.196Z,53.30
2019-05-19T00:06:19.680Z,53.33
2019-05-19T00:08:47.143Z,53.35
2019-05-19T00:11:14.620Z,53.41
2019-05-19T00:13:42.112Z,53.42
2019-05-19T00:16:09.615Z,53.48
2019-05-19T00:18:37.105Z,53.51
2019-05-19T00:21:04.567Z,53.55
2019-05-19T00:23:32.067Z,53.58
2019-05-19T00:25:59.547Z,53.62
2019-05-19T00:28:27.059Z,53.60
2019-05-19T00:30:54.527Z,53.61
2019-05-19T00:33:21.992Z,53.67
2019-05-19T00:35:49.491Z,53.70
2019-05-19T00:38:17.103Z,53.70
2019-05-19T00:40:44.558Z,53.79
2019-05-19T00:43:12.024Z,53.79
2019-05-19T00:45:39.564Z,53.82
2019-05-19T00:48:07.020Z,53.85
2019-05-19T00:50:35.010Z,53.88
2019-05-19T00:53:02.710Z,53.96
2019-05-19T00:55:30.476Z,53.94
2019-05-19T00:57:58.497Z,53.96
2019-05-19T01:00:26.391Z,54.01
2019-05-19T01:02:54.191Z,54.04
2019-05-19T01:05:22.064Z,54.05
2019-05-19T01:07:49.767Z,54.08
2019-05-19T01:10:17.612Z,54.17
2019-05-19T01:12:45.376Z,54.19
2019-05-19T01:15:13.146Z,54.20
2019-05-19T01:17:40.877Z,54.23
2019-05-19T01:20:08.683Z,54.24
2019-05-19T01:22:36.558Z,54.27
2019-05-19T01:25:05.125Z,54.30
2019-05-19T01:27:33.222Z,54.32
2019-05-19T01:30:00.785Z,54.36
2019-05-19T01:32:28.454Z,54.39
2019-05-19T01:34:55.935Z,54.45
2019-05-19T01:37:23.449Z,54.45
2019-05-19T01:39:51.241Z,54.45
2019-05-19T01:42:18.691Z,54.49
2019-05-19T01:44:46.177Z,54.53
2019-05-19T01:47:13.637Z,54.55
2019-05-19T01:49:41.113Z,54.58
2019-05-19T01:52:08.578Z,54.64
2019-05-19T01:54:36.066Z,54.69
2019-05-19T01:57:03.516Z,54.67
2019-05-19T01:59:30.991Z,54.74
2019-05-19T02:01:58.484Z,54.71
2019-05-19T02:04:25.962Z,54.68
2019-05-19T02:06:53.408Z,54.71
2019-05-19T02:09:20.971Z,54.71
2019-05-19T02:11:48.488Z,54.74
2019-05-19T02:14:15.943Z,54.79
2019-05-19T02:16:43.546Z,54.79
2019-05-19T02:19:11.021Z,54.81
2019-05-19T02:21:38.476Z,54.81
2019-05-19T02:24:05.967Z,54.84
2019-05-19T02:26:33.427Z,54.88
2019-05-19T02:29:00.926Z,54.83
2019-05-19T02:31:28.385Z,54.80
2019-05-19T02:33:55.897Z,54.84
2019-05-19T02:36:23.345Z,54.84
2019-05-19T02:38:50.847Z,54.86
2019-05-19T02:41:18.290Z,54.87
2019-05-19T02:43:45.853Z,54.87
2019-05-19T02:46:13.332Z,54.80
2019-05-19T02:48:40.796Z,54.82
2019-05-19T02:51:08.747Z,54.87
2019-05-19T02:53:36.174Z,54.84
2019-05-19T02:56:03.754Z,54.83
2019-05-19T02:58:32.013Z,54.86
2019-05-19T03:00:59.754Z,54.89
2019-05-19T03:03:27.339Z,54.86
2019-05-19T03:05:55.109Z,54.89
2019-05-19T03:08:22.882Z,54.89
2019-05-19T03:10:50.752Z,54.89
2019-05-19T03:13:18.602Z,54.83
2019-05-19T03:15:46.497Z,54.89
2019-05-19T03:18:14.175Z,54.86
2019-05-19T03:20:41.934Z,54.84
2019-05-19T03:23:09.701Z,54.87
2019-05-19T03:25:37.544Z,54.89
2019-05-19T03:28:05.276Z,54.91
2019-05-19T03:30:45.089Z,54.89
2019-05-19T03:33:13.239Z,54.88
2019-05-19T03:35:41.013Z,54.91
2019-05-19T03:38:08.810Z,54.92
2019-05-19T03:40:36.551Z,54.92
2019-05-19T03:43:04.251Z,54.90
2019-05-19T03:45:32.189Z,54.95
2019-05-19T03:47:59.925Z,54.93
2019-05-19T03:50:27.731Z,54.91
2019-05-19T03:52:55.532Z,54.88
2019-05-19T03:55:23.318Z,54.83
2019-05-19T03:57:51.143Z,54.81
2019-05-19T04:00:18.869Z,54.82
2019-05-19T04:02:46.808Z,54.85
2019-05-19T04:05:14.382Z,54.85
2019-05-19T04:07:42.093Z,54.93
2019-05-19T04:10:10.428Z,54.86
2019-05-19T04:12:38.266Z,54.90
2019-05-19T04:15:06.141Z,54.89
2019-05-19T04:17:34.449Z,54.82
2019-05-19T04:20:02.397Z,54.84
2019-05-19T04:22:30.127Z,54.81
2019-05-19T04:24:57.965Z,54.78
2019-05-19T04:27:25.853Z,54.73
2019-05-19T04:29:54.031Z,54.75
2019-05-19T04:32:21.788Z,54.78
2019-05-19T04:34:49.487Z,54.79
2019-05-19T04:37:17.431Z,54.81
2019-05-19T04:39:45.126Z,54.76
2019-05-19T04:42:12.824Z,54.74
2019-05-19T04:44:40.631Z,54.75
2019-05-19T04:47:08.503Z,54.74
2019-05-19T04:49:36.275Z,54.71
2019-05-19T04:52:07.061Z,54.75
2019-05-19T04:54:34.269Z,54.69
2019-05-19T04:57:02.132Z,54.72
2019-05-19T04:59:29.855Z,54.73
2019-05-19T05:01:57.677Z,54.73
2019-05-19T05:04:29.098Z,54.73
2019-05-19T05:06:55.100Z,54.70
2019-05-19T05:09:22.721Z,54.74
2019-05-19T05:11:50.504Z,54.73
2019-05-19T05:14:18.272Z,54.69
2019-05-19T05:16:46.038Z,54.68
2019-05-19T05:19:13.744Z,54.70
2019-05-19T05:21:41.585Z,54.73
2019-05-19T05:24:09.247Z,54.72
2019-05-19T05:26:37.218Z,54.70
2019-05-19T05:29:04.885Z,54.69
2019-05-19T05:31:32.499Z,54.65
2019-05-19T05:34:00.387Z,54.63
2019-05-19T05:36:28.197Z,54.61
2019-05-19T05:38:55.864Z,54.60
2019-05-19T05:41:23.662Z,54.59
2019-05-19T05:43:51.571Z,54.58
2019-05-19T05:46:19.381Z,54.54
2019-05-19T05:48:47.147Z,54.54
2019-05-19T05:51:14.859Z,54.50
2019-05-19T05:53:42.648Z,54.47
2019-05-19T05:56:10.254Z,54.49
2019-05-19T05:58:38.020Z,54.50
2019-05-19T06:01:05.898Z,54.49
2019-05-19T06:03:33.571Z,54.52
2019-05-19T06:06:01.273Z,54.46
2019-05-19T06:08:29.176Z,54.52
2019-05-19T06:10:56.907Z,54.46
2019-05-19T06:13:24.536Z,54.48
2019-05-19T06:15:52.206Z,54.44
2019-05-19T06:18:19.873Z,54.43
2019-05-19T06:20:47.436Z,54.37
2019-05-19T06:23:15.136Z,54.36
2019-05-19T06:25:43.086Z,54.37
2019-05-19T06:28:10.751Z,54.36
2019-05-19T06:30:38.618Z,54.31
2019-05-19T06:33:06.492Z,54.30
2019-05-19T06:35:34.158Z,54.24
2019-05-19T06:38:02.046Z,54.20
2019-05-19T06:40:30.215Z,54.20
2019-05-19T06:42:58.084Z,54.18
2019-05-19T06:45:26.002Z,54.14
2019-05-19T06:47:53.836Z,54.16
2019-05-19T06:50:21.597Z,54.15
2019-05-19T06:52:49.233Z,54.08
2019-05-19T06:55:17.034Z,54.03
2019-05-19T06:57:44.710Z,53.99
2019-05-19T07:00:14.080Z,53.91
2019-05-19T07:02:41.783Z,53.93
2019-05-19T07:05:09.548Z,53.84
2019-05-19T07:07:37.620Z,53.83
2019-05-19T07:10:05.435Z,53.81
2019-05-19T07:12:33.262Z,53.76
2019-05-19T07:15:01.030Z,53.71
2019-05-19T07:17:29.420Z,53.71
2019-05-19T07:19:57.086Z,53.66
2019-05-19T07:22:24.969Z,53.66
2019-05-19T07:24:52.728Z,53.60
2019-05-19T07:27:20.498Z,53.60
2019-05-19T07:29:48.273Z,53.53
2019-05-19T07:32:15.912Z,53.45
2019-05-19T07:34:43.644Z,53.42
2019-05-19T07:37:11.369Z,53.40
2019-05-19T07:39:39.053Z,53.33
2019-05-19T07:42:06.811Z,53.29
2019-05-19T07:44:34.517Z,53.26
2019-05-19T07:47:02.323Z,53.20
2019-05-19T07:49:30.115Z,53.15
2019-05-19T07:51:57.884Z,53.15
2019-05-19T07:54:25.652Z,53.06
2019-05-19T07:56:53.109Z,53.06
2019-05-19T07:59:20.606Z,53.03
2019-05-19T08:01:48.074Z,53.00
2019-05-19T08:04:15.564Z,53.01
2019-05-19T08:06:43.044Z,52.99
2019-05-19T08:09:10.547Z,52.96
2019-05-19T08:11:38.028Z,52.94
2019-05-19T08:14:05.517Z,52.95
2019-05-19T08:16:33.399Z,52.92
2019-05-19T08:19:01.106Z,52.82
2019-05-19T08:21:28.751Z,52.76
2019-05-19T08:24:00.828Z,52.71
2019-05-19T08:26:26.456Z,52.64
2019-05-19T08:28:54.300Z,52.56
2019-05-19T08:31:21.999Z,52.49
2019-05-19T08:33:49.784Z,52.45
2019-05-19T08:36:17.539Z,52.44
2019-05-19T08:38:45.305Z,52.43
2019-05-19T08:41:13.136Z,52.46
2019-05-19T08:43:40.883Z,52.47
2019-05-19T08:46:08.793Z,52.51
2019-05-19T08:48:36.536Z,52.50
2019-05-19T08:51:04.234Z,52.39
2019-05-19T08:53:31.890Z,52.36
2019-05-19T08:55:59.588Z,52.26
2019-05-19T08:58:27.360Z,52.13
2019-05-19T09:00:55.273Z,52.05
2019-05-19T09:03:23.105Z,51.99
2019-05-19T09:05:50.982Z,51.90
2019-05-19T09:08:18.846Z,51.85
2019-05-19T09:10:46.615Z,51.84
2019-05-19T09:13:14.530Z,51.80
2019-05-19T09:15:42.260Z,51.74
2019-05-19T09:18:09.927Z,51.68
2019-05-19T09:20:37.799Z,51.61
2019-05-19T09:23:05.672Z,51.53
2019-05-19T09:25:33.550Z,51.48
2019-05-19T09:28:01.350Z,51.47
2019-05-19T09:30:28.982Z,51.44
2019-05-19T09:32:56.688Z,51.43
2019-05-19T09:35:24.520Z,51.39
2019-05-19T09:37:52.084Z,51.36
2019-05-19T09:40:19.855Z,51.28
2019-05-19T09:42:47.728Z,51.18
2019-05-19T09:45:15.602Z,51.11
2019-05-19T09:47:43.403Z,51.03
2019-05-19T09:50:11.011Z,50.96
2019-05-19T09:52:38.922Z,50.88
2019-05-19T09:55:06.692Z,50.77
2019-05-19T09:57:34.344Z,50.70
2019-05-19T10:00:02.115Z,50.64
2019-05-19T10:02:29.887Z,50.59
2019-05-19T10:04:57.584Z,50.56
2019-05-19T10:07:25.391Z,50.49
2019-05-19T10:10:03.997Z,50.41
2019-05-19T10:12:31.780Z,50.33
2019-05-19T10:14:59.278Z,50.27
2019-05-19T10:17:27.249Z,50.17
2019-05-19T10:19:54.917Z,50.05
2019-05-19T10:22:22.382Z,50.01
2019-05-19T10:25:10.368Z,49.94
2019-05-19T10:27:21.586Z,49.86
2019-05-19T10:29:48.774Z,49.84
2019-05-19T10:32:16.233Z,49.78
2019-05-19T10:34:43.788Z,49.73
2019-05-19T10:37:11.264Z,49.73
2019-05-19T10:39:38.702Z,49.69
2019-05-19T10:42:06.233Z,49.66
2019-05-19T10:44:33.747Z,49.61
2019-05-19T10:47:01.242Z,49.59
2019-05-19T10:49:28.730Z,49.57
2019-05-19T10:51:56.189Z,49.56
2019-05-19T10:54:23.678Z,49.54
2019-05-19T10:56:51.152Z,49.51
2019-05-19T10:59:18.696Z,49.48
2019-05-19T11:01:46.730Z,49.47
2019-05-19T11:04:14.182Z,49.45
2019-05-19T11:06:41.681Z,49.43
2019-05-19T11:09:09.153Z,49.42
2019-05-19T11:11:36.744Z,49.38
2019-05-19T11:14:04.448Z,49.37
2019-05-19T11:16:31.895Z,49.33
2019-05-19T11:18:59.391Z,49.27
2019-05-19T11:21:26.856Z,49.25
2019-05-19T11:23:54.349Z,49.23
2019-05-19T11:26:21.831Z,49.17
2019-05-19T11:28:49.334Z,49.17
2019-05-19T11:31:16.784Z,49.12
2019-05-19T11:33:44.261Z,49.09
2019-05-19T11:36:11.752Z,49.05
2019-05-19T11:38:39.211Z,49.04
2019-05-19T11:41:06.675Z,48.99
2019-05-19T11:43:34.115Z,48.96
2019-05-19T11:46:01.611Z,48.92
2019-05-19T11:48:29.062Z,48.89
2019-05-19T11:50:56.676Z,48.86
2019-05-19T11:53:24.151Z,48.81
2019-05-19T11:56:05.474Z,48.82
2019-05-19T11:58:21.036Z,48.79
2019-05-19T12:00:48.789Z,48.76
2019-05-19T12:03:16.416Z,48.74
2019-05-19T12:05:44.206Z,48.70
2019-05-19T12:08:11.833Z,48.64
2019-05-19T12:10:39.642Z,48.62
2019-05-19T12:13:07.303Z,48.61
2019-05-19T12:15:35.117Z,48.57
2019-05-19T12:18:03.028Z,48.54
2019-05-19T12:20:30.661Z,48.50
2019-05-19T12:22:58.350Z,48.46
2019-05-19T12:25:26.268Z,48.46
2019-05-19T12:27:54.026Z,48.42
2019-05-19T12:30:21.800Z,48.41
2019-05-19T12:32:49.651Z,48.38
2019-05-19T12:35:17.521Z,48.33
2019-05-19T12:37:45.416Z,48.34
2019-05-19T12:40:13.187Z,48.31
2019-05-19T12:42:41.057Z,48.28
2019-05-19T12:45:08.835Z,48.21
2019-05-19T12:47:36.643Z,48.22
2019-05-19T12:50:04.555Z,48.20
2019-05-19T12:52:32.443Z,48.15
2019-05-19T12:55:00.155Z,48.12
2019-05-19T12:57:28.060Z,48.09
2019-05-19T12:59:55.855Z,48.07
2019-05-19T13:02:23.786Z,48.02
2019-05-19T13:05:04.464Z,47.98
2019-05-19T13:07:21.519Z,47.94
2019-05-19T13:09:49.071Z,47.94
2019-05-19T13:12:16.535Z,47.88
2019-05-19T13:14:44.213Z,47.85
2019-05-19T13:17:11.715Z,47.84
2019-05-19T13:22:06.705Z,47.77
2019-05-19T13:24:34.200Z,47.72
2019-05-19T13:27:01.940Z,47.69
2019-05-19T13:29:29.398Z,47.66
2019-05-19T13:31:57.272Z,47.63
2019-05-19T13:34:24.838Z,47.59
2019-05-19T13:36:52.708Z,47.59
2019-05-19T13:39:20.139Z,47.54
2019-05-19T13:41:47.608Z,47.51
2019-05-19T13:44:15.073Z,47.47
2019-05-19T13:46:42.666Z,47.42
2019-05-19T13:49:10.144Z,47.42
2019-05-19T13:51:37.652Z,47.37
2019-05-19T13:54:05.363Z,47.28
2019-05-19T13:56:32.837Z,47.22
2019-05-19T13:59:00.525Z,47.11
2019-05-19T14:01:29.139Z,47.08
2019-05-19T14:03:57.048Z,47.04
2019-05-19T14:06:24.526Z,46.96
2019-05-19T14:08:52.007Z,46.89
2019-05-19T14:11:19.814Z,46.89
2019-05-19T14:13:47.557Z,46.75
2019-05-19T14:16:15.045Z,46.58
2019-05-19T14:18:42.849Z,46.14
2019-05-19T14:21:10.514Z,46.07
2019-05-19T14:23:37.997Z,45.88
2019-05-19T14:26:05.753Z,45.29
2019-05-19T14:28:33.226Z,45.30
2019-05-19T14:31:00.683Z,45.36
2019-05-19T14:33:28.350Z,45.32
2019-05-19T14:35:56.055Z,45.38
2019-05-19T14:38:23.982Z,45.55
2019-05-19T14:40:51.755Z,45.52
2019-05-19T14:43:19.990Z,45.60
2019-05-19T14:45:47.679Z,45.64
2019-05-19T14:48:15.574Z,45.66
2019-05-19T14:50:43.044Z,45.63
2019-05-19T14:53:10.911Z,45.64
2019-05-19T14:55:38.677Z,45.61
2019-05-19T14:58:06.346Z,45.64
2019-05-19T15:00:34.120Z,45.64
2019-05-19T15:03:01.990Z,45.66
2019-05-19T15:05:29.685Z,45.68
2019-05-19T15:07:57.372Z,45.70
2019-05-19T15:10:25.269Z,45.68
2019-05-19T15:12:52.735Z,45.70
2019-05-19T15:15:20.536Z,45.70
2019-05-19T15:17:47.977Z,45.69
2019-05-19T15:20:15.805Z,45.68
2019-05-19T15:22:43.688Z,45.60
2019-05-19T15:25:11.430Z,45.49
2019-05-19T15:27:39.275Z,45.44
2019-05-19T15:30:12.987Z,45.34
2019-05-19T15:32:36.515Z,45.18
2019-05-19T15:35:04.224Z,45.14
2019-05-19T15:37:31.890Z,45.18
2019-05-19T15:39:59.764Z,45.23
2019-05-19T15:42:27.332Z,45.34
2019-05-19T15:44:54.992Z,45.44
2019-05-19T15:47:22.757Z,45.51
2019-05-19T15:49:50.535Z,45.57
2019-05-19T15:52:18.021Z,45.57
2019-05-19T15:54:45.500Z,45.62
2019-05-19T15:57:12.966Z,45.62
2019-05-19T15:59:40.698Z,45.67
2019-05-19T16:02:08.366Z,45.68
2019-05-19T16:04:35.823Z,45.70
2019-05-19T16:07:05.156Z,45.72
2019-05-19T16:09:33.171Z,45.76
2019-05-19T16:12:00.634Z,45.79
2019-05-19T16:14:28.416Z,45.83
2019-05-19T16:16:55.986Z,45.88
2019-05-19T16:19:23.769Z,45.87
2019-05-19T16:21:51.541Z,45.91
2019-05-19T16:24:19.253Z,45.93
2019-05-19T16:26:47.080Z,45.94
2019-05-19T16:29:14.561Z,45.99
2019-05-19T16:31:42.211Z,46.04
2019-05-19T16:34:10.182Z,46.08
2019-05-19T16:36:37.954Z,46.10
2019-05-19T16:39:05.906Z,46.12
2019-05-19T16:41:33.697Z,46.15
2019-05-19T16:44:01.188Z,46.19
2019-05-19T16:46:28.640Z,46.19
2019-05-19T16:48:56.142Z,46.26
2019-05-19T16:51:23.854Z,46.31
2019-05-19T16:53:53.679Z,46.32
2019-05-19T16:56:21.543Z,46.34
2019-05-19T16:58:49.085Z,46.34
2019-05-19T17:01:19.799Z,46.37
2019-05-19T17:03:46.778Z,46.42
2019-05-19T17:06:14.250Z,46.41
2019-05-19T17:08:41.733Z,46.42
2019-05-19T17:11:18.101Z,46.43
2019-05-19T17:13:38.721Z,46.46
2019-05-19T17:16:06.235Z,46.49
2019-05-19T17:18:33.696Z,46.48
2019-05-19T17:21:01.203Z,46.52
2019-05-19T17:23:28.692Z,46.57
2019-05-19T17:25:56.582Z,46.59
2019-05-19T17:28:24.034Z,46.62
2019-05-19T17:30:51.628Z,46.64
2019-05-19T17:33:19.092Z,46.67
2019-05-19T17:35:46.785Z,46.70
2019-05-19T17:38:14.584Z,46.71
2019-05-19T17:40:42.454Z,46.71
2019-05-19T17:43:10.600Z,46.71
2019-05-19T17:45:38.274Z,46.51
2019-05-19T17:48:09.926Z,46.24
2019-05-19T17:50:35.767Z,46.07
2019-05-19T17:53:03.425Z,46.08
2019-05-19T17:55:32.484Z,46.31
2019-05-19T17:58:00.389Z,46.44
2019-05-19T18:00:35.975Z,46.58
2019-05-19T18:03:04.052Z,46.66
2019-05-19T18:05:31.792Z,46.56
2019-05-19T18:07:59.330Z,46.59
2019-05-19T18:10:26.785Z,46.65
2019-05-19T18:12:54.302Z,46.73
2019-05-19T18:15:22.146Z,46.76
2019-05-19T18:17:49.622Z,46.81
2019-05-19T18:20:23.652Z,46.88
2019-05-19T18:22:47.490Z,46.94
2019-05-19T18:25:14.956Z,46.96
2019-05-19T18:27:42.792Z,47.03
2019-05-19T18:30:10.280Z,47.06
2019-05-19T18:32:37.751Z,47.04
2019-05-19T18:35:05.841Z,47.02
2019-05-19T18:37:33.324Z,47.04
2019-05-19T18:40:00.930Z,47.06
2019-05-19T18:42:28.578Z,47.12
2019-05-19T18:44:56.365Z,47.18
2019-05-19T18:47:24.153Z,47.23
2019-05-19T18:49:52.053Z,47.30
2019-05-19T18:52:19.817Z,47.32
2019-05-19T18:54:47.292Z,47.35
2019-05-19T18:57:14.983Z,47.40
2019-05-19T18:59:47.425Z,47.43
2019-05-19T19:02:12.041Z,47.46
2019-05-19T19:04:39.507Z,47.53
2019-05-19T19:07:07.088Z,47.59
2019-05-19T19:09:34.588Z,47.70
2019-05-19T19:12:02.375Z,47.77
2019-05-19T19:14:30.128Z,47.87
2019-05-19T19:16:57.925Z,48.00
2019-05-19T19:19:25.463Z,48.10
2019-05-19T19:21:53.261Z,48.19
2019-05-19T19:24:20.726Z,48.36
2019-05-19T19:26:48.229Z,48.50
2019-05-19T19:29:15.745Z,48.59
2019-05-19T19:31:48.493Z,48.71
2019-05-19T19:34:13.164Z,48.83
2019-05-19T19:36:40.657Z,48.87
2019-05-19T19:39:08.138Z,48.93
2019-05-19T19:41:35.649Z,49.53
2019-05-19T19:44:03.181Z,49.58
2019-05-19T19:46:30.666Z,49.66
2019-05-19T19:48:58.112Z,50.31
2019-05-19T19:51:25.600Z,50.72
2019-05-19T19:53:53.171Z,50.71
2019-05-19T19:56:20.649Z,50.96
2019-05-19T19:58:48.220Z,51.07
2019-05-19T20:01:15.769Z,51.18
2019-05-19T20:03:43.258Z,51.25
2019-05-19T20:06:13.048Z,51.29
2019-05-19T20:08:40.523Z,51.37
2019-05-19T20:11:08.997Z,51.60
2019-05-19T20:13:36.512Z,51.71
2019-05-19T20:16:03.959Z,51.87
2019-05-19T20:18:31.500Z,51.93
2019-05-19T20:20:58.948Z,51.82
2019-05-19T20:23:26.488Z,51.85
2019-05-19T20:25:53.982Z,51.85
2019-05-19T20:28:21.432Z,51.91
2019-05-19T20:30:48.929Z,52.00
2019-05-19T20:33:16.389Z,52.12
2019-05-19T20:35:43.876Z,52.32
2019-05-19T20:38:11.325Z,52.44
2019-05-19T20:40:38.813Z,52.48
2019-05-19T20:43:06.291Z,52.49
2019-05-19T20:45:33.760Z,52.56
2019-05-19T20:48:01.232Z,52.63
2019-05-19T20:50:28.985Z,52.66
2019-05-19T20:52:56.472Z,52.78
2019-05-19T20:55:23.921Z,52.83
2019-05-19T20:57:51.415Z,52.84
2019-05-19T21:00:18.882Z,52.90
2019-05-19T21:02:46.379Z,52.96
2019-05-19T21:05:13.941Z,53.01
2019-05-19T21:07:41.432Z,53.08
2019-05-19T21:10:08.890Z,53.13
2019-05-19T21:12:36.432Z,53.15
2019-05-19T21:15:04.058Z,53.29
2019-05-19T21:17:31.558Z,53.40
2019-05-19T21:19:59.036Z,53.46
2019-05-19T21:22:26.511Z,53.54
2019-05-19T21:24:54.002Z,53.56
2019-05-19T21:27:21.476Z,53.59
2019-05-19T21:29:48.967Z,53.66
2019-05-19T21:32:16.443Z,53.71
2019-05-19T21:34:44.002Z,53.76
2019-05-19T21:37:11.517Z,53.82
2019-05-19T21:39:38.984Z,53.80
2019-05-19T21:42:06.418Z,54.38
2019-05-19T21:44:34.043Z,54.06
2019-05-19T21:47:01.484Z,54.03
2019-05-19T21:49:28.967Z,54.26
2019-05-19T21:51:56.465Z,54.21
2019-05-19T21:54:24.142Z,54.30
2019-05-19T21:57:14.089Z,54.34
2019-05-19T21:59:41.606Z,54.33
2019-05-19T22:02:09.120Z,54.34
2019-05-19T22:04:36.562Z,54.41
2019-05-19T22:07:12.193Z,54.53
2019-05-19T22:09:39.662Z,54.58
2019-05-19T22:12:07.205Z,54.63
2019-05-19T22:14:34.790Z,55.06
2019-05-19T22:17:02.277Z,54.97
2019-05-19T22:19:29.736Z,55.01
2019-05-19T22:21:57.273Z,54.96
2019-05-19T22:24:24.745Z,55.12
2019-05-19T22:26:52.202Z,55.25
2019-05-19T22:29:19.916Z,55.27
2019-05-19T22:31:47.510Z,55.41
2019-05-19T22:34:14.995Z,55.41
2019-05-19T22:36:42.459Z,55.52
2019-05-19T22:39:09.975Z,55.67
2019-05-19T22:41:37.869Z,55.66
2019-05-19T22:44:05.304Z,56.08
2019-05-19T22:46:32.776Z,56.17
2019-05-19T22:49:00.649Z,56.20
2019-05-19T22:51:28.213Z,56.30
2019-05-19T22:53:56.073Z,56.37
2019-05-19T22:56:23.811Z,56.58
2019-05-19T22:58:51.325Z,56.60
2019-05-19T23:01:18.874Z,56.67
2019-05-19T23:03:46.387Z,56.73
2019-05-19T23:06:13.947Z,56.70
2019-05-19T23:08:41.460Z,56.63
2019-05-19T23:11:09.295Z,56.69
2019-05-19T23:13:37.061Z,56.62
2019-05-19T23:16:04.725Z,56.65
2019-05-19T23:18:32.585Z,56.78
2019-05-19T23:21:00.422Z,56.79
2019-05-19T23:23:28.336Z,56.88
2019-05-19T23:25:56.185Z,57.00
2019-05-19T23:28:24.162Z,57.12
2019-05-19T23:30:52.062Z,57.25
2019-05-19T23:33:19.889Z,57.34
2019-05-19T23:35:47.368Z,57.37
2019-05-19T23:38:14.867Z,57.55
2019-05-19T23:40:42.351Z,57.85
2019-05-19T23:43:09.819Z,57.77
2019-05-19T23:45:37.331Z,58.12
2019-05-19T23:48:04.790Z,58.29
2019-05-19T23:50:32.491Z,58.49
2019-05-19T23:53:00.071Z,58.43
2019-05-19T23:55:27.653Z,58.46
2019-05-19T23:57:55.145Z,58.39
